Time;durP1;ratioP1;P1;durP2;ratioP2;P2;SDS_P1;SDS_P2;PMS_P1;PMS_P2;Temp;Humidity;BMP_temperature;BMP_pressure;BME280_temperature;BME280_humidity;BME280_pressure;Samples;Min_cycle;Max_cycle;Signal;HPM_P1;HPM_P2
2021/07/03 00:00:03;;;;;;;13.73;12.20;;;17.00;99.90;;;;;;5041956;28;20819;-82
2021/07/03 00:02:29;;;;;;;14.30;11.73;;;17.00;99.90;;;;;;5039743;28;20446;-82
2021/07/03 00:04:56;;;;;;;15.23;11.70;;;17.00;99.90;;;;;;5041945;28;20443;-82
2021/07/03 00:07:22;;;;;;;14.07;11.60;;;16.90;99.90;;;;;;5041385;28;20471;-82
2021/07/03 00:09:49;;;;;;;14.47;11.20;;;16.90;99.90;;;;;;5041645;28;20446;-82
2021/07/03 00:12:17;;;;;;;15.50;12.30;;;16.90;99.90;;;;;;5040668;28;20454;-82
2021/07/03 00:14:43;;;;;;;14.57;11.73;;;16.90;99.90;;;;;;5040256;28;20870;-82
2021/07/03 00:17:10;;;;;;;15.43;12.73;;;16.90;99.90;;;;;;5040843;28;20463;-82
2021/07/03 00:19:37;;;;;;;15.60;13.03;;;16.90;99.90;;;;;;5040605;28;20473;-83
2021/07/03 00:22:04;;;;;;;16.07;12.03;;;16.90;99.90;;;;;;5039840;28;20470;-82
2021/07/03 00:24:30;;;;;;;16.63;12.70;;;16.90;99.90;;;;;;5039734;28;20503;-82
2021/07/03 00:26:57;;;;;;;15.43;13.07;;;16.90;99.90;;;;;;5039756;28;20466;-82
2021/07/03 00:29:25;;;;;;;19.93;13.20;;;16.80;99.90;;;;;;5039425;28;20473;-82
2021/07/03 00:31:51;;;;;;;14.23;12.40;;;16.80;99.90;;;;;;5039276;28;20556;-81
2021/07/03 00:34:18;;;;;;;20.10;13.20;;;16.80;99.90;;;;;;5039113;28;20478;-82
2021/07/03 00:36:44;;;;;;;16.47;13.07;;;16.80;99.90;;;;;;5039248;28;20597;-81
2021/07/03 00:39:11;;;;;;;20.40;13.40;;;16.80;99.90;;;;;;5039463;28;20454;-82
2021/07/03 00:41:38;;;;;;;16.53;13.07;;;16.80;99.90;;;;;;5039380;28;20443;-81
2021/07/03 00:44:05;;;;;;;17.67;14.13;;;16.80;99.90;;;;;;5038237;28;20457;-82
2021/07/03 00:46:33;;;;;;;20.70;15.60;;;16.80;99.90;;;;;;5039246;28;20888;-82
2021/07/03 00:48:59;;;;;;;17.50;13.47;;;16.80;99.90;;;;;;5039186;28;20857;-82
2021/07/03 00:51:26;;;;;;;14.40;12.20;;;16.80;99.90;;;;;;5039020;28;20843;-82
2021/07/03 00:53:52;;;;;;;18.70;13.87;;;16.80;99.90;;;;;;5039619;28;20450;-82
2021/07/03 00:56:19;;;;;;;25.33;15.40;;;16.80;99.90;;;;;;5039441;28;20450;-82
2021/07/03 00:58:46;;;;;;;21.20;14.07;;;16.90;99.90;;;;;;5038852;28;20483;-81
2021/07/03 01:01:12;;;;;;;19.23;14.63;;;16.90;99.90;;;;;;5039356;28;20480;-82
2021/07/03 01:03:40;;;;;;;19.77;14.00;;;16.80;99.90;;;;;;5039198;28;20446;-82
2021/07/03 01:06:07;;;;;;;17.13;15.00;;;16.80;99.90;;;;;;5039399;28;20446;-81
2021/07/03 01:08:33;;;;;;;16.73;13.73;;;16.80;99.90;;;;;;5039150;28;20467;-82
2021/07/03 01:11:00;;;;;;;17.53;14.80;;;16.80;99.90;;;;;;5038595;28;20482;-82
2021/07/03 01:13:30;;;;;;;18.90;13.80;;;16.80;99.90;;;;;;5040741;28;20817;-82
2021/07/03 01:15:57;;;;;;;20.07;15.23;;;16.80;99.90;;;;;;5042244;28;20804;-81
2021/07/03 01:18:24;;;;;;;18.00;13.60;;;16.80;99.90;;;;;;5042944;28;20473;-81
2021/07/03 01:20:54;;;;;;;19.80;15.33;;;16.80;99.90;;;;;;5043359;28;20446;-82
2021/07/03 01:23:22;;;;;;;15.87;13.03;;;16.80;99.90;;;;;;5043737;28;20445;-82
2021/07/03 01:25:55;;;;;;;22.60;14.40;;;16.70;99.90;;;;;;5043093;28;20482;-82
2021/07/03 01:28:21;;;;;;;18.87;14.50;;;16.80;99.90;;;;;;5042255;28;20466;-82
2021/07/03 01:30:48;;;;;;;17.97;14.20;;;16.80;99.90;;;;;;5042290;28;20482;-82
2021/07/03 01:33:14;;;;;;;16.73;13.90;;;16.80;99.90;;;;;;5042579;28;20439;-81
2021/07/03 01:35:41;;;;;;;21.00;16.27;;;16.80;99.90;;;;;;5044374;28;20473;-82
2021/07/03 01:38:08;;;;;;;20.70;15.07;;;16.70;99.90;;;;;;5053736;28;20467;-82
2021/07/03 01:40:36;;;;;;;17.03;15.10;;;16.80;99.90;;;;;;5051877;28;20441;-82
2021/07/03 01:43:02;;;;;;;20.67;14.93;;;16.70;99.90;;;;;;5042360;28;20443;-82
2021/07/03 01:45:29;;;;;;;15.23;13.53;;;16.70;99.90;;;;;;5045703;28;20953;-82
2021/07/03 01:47:56;;;;;;;20.63;17.00;;;16.70;99.90;;;;;;5042633;28;20470;-82
2021/07/03 01:50:22;;;;;;;20.90;15.47;;;16.60;99.90;;;;;;5043297;28;20446;-82
2021/07/03 01:52:50;;;;;;;18.47;14.00;;;16.60;99.90;;;;;;5044298;28;20869;-82
2021/07/03 01:55:17;;;;;;;19.70;15.60;;;16.50;99.90;;;;;;5046041;28;20449;-82
2021/07/03 01:57:45;;;;;;;18.57;15.37;;;16.40;99.90;;;;;;5043354;28;20888;-83
2021/07/03 02:00:13;;;;;;;20.20;15.93;;;16.40;99.90;;;;;;5041816;28;20470;-82
2021/07/03 02:02:39;;;;;;;19.30;15.13;;;16.40;99.90;;;;;;5041267;28;20476;-82
2021/07/03 02:05:06;;;;;;;19.00;15.90;;;16.30;99.90;;;;;;5040903;28;20449;-82
2021/07/03 02:07:33;;;;;;;21.63;15.87;;;16.30;99.90;;;;;;5041637;28;20461;-82
2021/07/03 02:10:00;;;;;;;19.57;15.43;;;16.30;99.90;;;;;;5041616;28;20941;-82
2021/07/03 02:12:27;;;;;;;18.80;15.87;;;16.30;99.90;;;;;;5041655;28;20893;-82
2021/07/03 02:14:55;;;;;;;20.30;14.47;;;16.30;99.90;;;;;;5041780;28;20450;-81
2021/07/03 02:17:21;;;;;;;19.40;15.50;;;16.20;99.90;;;;;;5041357;28;20523;-82
2021/07/03 02:19:48;;;;;;;24.70;17.23;;;16.20;99.90;;;;;;5040894;28;20458;-82
2021/07/03 02:22:15;;;;;;;19.10;15.80;;;16.20;99.90;;;;;;5040437;28;20446;-82
2021/07/03 02:24:41;;;;;;;20.33;15.20;;;16.20;99.90;;;;;;5039742;28;20602;-82
2021/07/03 02:27:08;;;;;;;18.27;14.93;;;16.20;99.90;;;;;;5040923;28;20466;-82
2021/07/03 02:29:34;;;;;;;20.70;16.07;;;16.20;99.90;;;;;;5040587;28;20477;-82
2021/07/03 02:32:03;;;;;;;22.30;15.97;;;16.10;99.90;;;;;;5040378;28;20478;-82
2021/07/03 02:34:29;;;;;;;20.20;14.80;;;16.10;99.90;;;;;;5040323;28;20937;-82
2021/07/03 02:36:56;;;;;;;23.23;17.00;;;16.20;99.90;;;;;;5057868;28;20520;-81
2021/07/03 02:39:22;;;;;;;20.67;15.83;;;16.10;99.90;;;;;;5059828;28;20457;-81
2021/07/03 02:41:49;;;;;;;27.87;18.20;;;16.10;99.90;;;;;;5059945;28;20447;-81
2021/07/03 02:44:16;;;;;;;25.67;18.17;;;16.00;99.90;;;;;;5053388;28;20466;-82
2021/07/03 02:46:42;;;;;;;23.03;16.57;;;16.00;99.90;;;;;;5044387;28;20451;-82
2021/07/03 02:49:10;;;;;;;23.10;17.20;;;16.00;99.90;;;;;;5044595;28;20447;-82
2021/07/03 02:51:37;;;;;;;26.30;16.07;;;15.90;99.90;;;;;;5043320;28;20505;-82
2021/07/03 02:54:03;;;;;;;22.87;15.90;;;16.00;99.90;;;;;;5043105;28;20863;-82
2021/07/03 02:56:30;;;;;;;22.50;16.87;;;15.80;99.90;;;;;;5041426;28;20477;-82
2021/07/03 02:58:56;;;;;;;22.60;18.23;;;15.90;99.90;;;;;;5091836;22;20551;-77
2021/07/03 03:01:23;;;;;;;20.70;16.80;;;15.90;99.90;;;;;;5071772;28;20450;-77
2021/07/03 03:03:49;;;;;;;22.03;17.30;;;15.90;99.90;;;;;;5070805;28;20438;-78
2021/07/03 03:06:17;;;;;;;24.27;17.50;;;15.90;99.90;;;;;;5065781;28;20449;-78
2021/07/03 03:08:44;;;;;;;22.93;17.00;;;16.00;99.90;;;;;;5063885;28;20466;-78
2021/07/03 03:11:11;;;;;;;25.23;16.47;;;16.10;99.90;;;;;;5064032;28;20477;-78
2021/07/03 03:13:37;;;;;;;17.87;15.90;;;16.00;99.90;;;;;;5064998;28;20485;-79
2021/07/03 03:16:04;;;;;;;20.47;16.47;;;15.90;99.90;;;;;;5063336;28;20508;-80
2021/07/03 03:18:31;;;;;;;23.83;17.80;;;15.90;99.90;;;;;;5061326;28;20871;-79
2021/07/03 03:20:58;;;;;;;28.77;23.07;;;15.70;99.90;;;;;;5061217;28;20847;-78
2021/07/03 03:23:25;;;;;;;25.27;18.27;;;15.90;99.90;;;;;;5060731;28;20468;-78
2021/07/03 03:25:53;;;;;;;23.50;17.20;;;15.80;99.90;;;;;;5058310;28;20565;-79
2021/07/03 03:28:20;;;;;;;27.20;18.07;;;15.80;99.90;;;;;;5057136;28;21035;-79
2021/07/03 03:30:47;;;;;;;23.63;17.93;;;15.80;99.90;;;;;;5056812;28;20441;-78
2021/07/03 03:33:13;;;;;;;27.87;19.87;;;15.80;99.90;;;;;;5057010;28;20875;-78
2021/07/03 03:35:40;;;;;;;27.93;21.40;;;15.80;99.90;;;;;;5057174;28;20458;-79
2021/07/03 03:38:06;;;;;;;25.17;19.23;;;15.80;99.90;;;;;;5057284;28;21025;-79
2021/07/03 03:40:34;;;;;;;22.90;18.50;;;15.90;99.90;;;;;;5057380;28;20461;-78
2021/07/03 03:43:01;;;;;;;26.60;17.40;;;15.80;99.90;;;;;;5056976;28;20445;-79
2021/07/03 03:45:28;;;;;;;22.73;17.27;;;15.80;99.90;;;;;;5056904;28;20449;-78
2021/07/03 03:47:55;;;;;;;26.33;19.60;;;15.80;99.90;;;;;;5059925;28;20462;-79
2021/07/03 03:50:22;;;;;;;22.87;17.97;;;15.80;99.90;;;;;;5056337;28;20449;-79
2021/07/03 03:52:48;;;;;;;25.83;17.77;;;15.80;99.90;;;;;;5060332;28;20535;-78
2021/07/03 03:55:15;;;;;;;22.20;18.17;;;15.90;99.90;;;;;;5061332;28;20438;-78
2021/07/03 03:57:43;;;;;;;25.97;19.20;;;15.90;99.90;;;;;;5059037;28;20512;-78
2021/07/03 04:00:11;;;;;;;24.20;17.97;;;15.90;99.90;;;;;;5060866;28;20449;-78
2021/07/03 04:02:38;;;;;;;26.67;17.83;;;15.90;99.90;;;;;;5061995;28;20449;-78
2021/07/03 04:05:06;;;;;;;25.40;18.30;;;15.90;99.90;;;;;;5061289;28;20503;-78
2021/07/03 04:07:32;;;;;;;21.17;17.60;;;15.90;99.90;;;;;;5060431;28;20461;-78
2021/07/03 04:09:59;;;;;;;20.57;17.07;;;15.90;99.90;;;;;;5060326;28;20472;-78
2021/07/03 04:12:26;;;;;;;23.53;17.50;;;16.00;99.90;;;;;;5058603;28;20523;-78
2021/07/03 04:14:54;;;;;;;21.93;18.53;;;16.10;99.90;;;;;;5057313;28;20459;-79
2021/07/03 04:17:21;;;;;;;21.43;17.50;;;16.10;99.90;;;;;;5056057;28;20466;-79
2021/07/03 04:19:48;;;;;;;25.70;18.50;;;16.20;99.90;;;;;;5056106;28;20823;-79
2021/07/03 04:22:15;;;;;;;20.43;16.40;;;16.10;99.90;;;;;;5055951;28;20503;-79
2021/07/03 04:24:41;;;;;;;27.03;18.83;;;16.20;99.90;;;;;;5059070;28;20472;-78
2021/07/03 04:27:08;;;;;;;30.67;21.23;;;16.20;99.90;;;;;;5056981;28;20453;-79
2021/07/03 04:29:35;;;;;;;21.30;17.73;;;16.20;99.90;;;;;;5055290;28;20433;-79
2021/07/03 04:32:03;;;;;;;24.70;16.87;;;16.20;99.90;;;;;;5055811;28;20504;-79
2021/07/03 04:34:31;;;;;;;23.30;18.07;;;16.20;99.90;;;;;;5055795;28;20446;-79
2021/07/03 04:36:58;;;;;;;25.90;17.93;;;16.30;99.90;;;;;;5055357;28;21005;-79
2021/07/03 04:39:25;;;;;;;21.73;17.77;;;16.30;99.90;;;;;;5055881;28;20449;-80
2021/07/03 04:41:52;;;;;;;21.20;18.63;;;16.40;99.90;;;;;;5055735;28;20473;-79
2021/07/03 04:44:19;;;;;;;19.93;17.27;;;16.40;99.90;;;;;;5058710;28;20450;-78
2021/07/03 04:46:46;;;;;;;23.27;17.80;;;16.50;99.90;;;;;;5061810;28;20445;-79
2021/07/03 04:49:15;;;;;;;25.00;18.73;;;16.50;99.90;;;;;;5055640;28;20832;-78
2021/07/03 04:51:42;;;;;;;24.37;19.13;;;16.50;99.90;;;;;;5056572;28;20481;-77
2021/07/03 04:54:09;;;;;;;23.50;18.37;;;16.60;99.90;;;;;;5057363;28;20452;-79
2021/07/03 04:56:35;;;;;;;28.13;19.57;;;16.60;99.90;;;;;;5054810;28;20864;-79
2021/07/03 04:59:02;;;;;;;25.83;18.57;;;16.60;99.90;;;;;;5054622;28;20503;-79
2021/07/03 05:01:29;;;;;;;25.70;18.47;;;16.70;99.90;;;;;;5054857;28;20812;-79
2021/07/03 05:03:55;;;;;;;21.37;17.20;;;16.80;99.90;;;;;;5056298;28;20795;-79
2021/07/03 05:06:23;;;;;;;22.10;17.77;;;16.80;99.90;;;;;;5054841;28;20506;-79
2021/07/03 05:08:50;;;;;;;23.90;17.20;;;16.80;99.90;;;;;;5054564;28;20469;-78
2021/07/03 05:11:16;;;;;;;24.20;16.60;;;16.80;99.90;;;;;;5055072;28;20477;-78
2021/07/03 05:13:43;;;;;;;23.93;17.80;;;16.90;99.90;;;;;;5055022;28;21025;-80
2021/07/03 05:16:09;;;;;;;20.57;16.67;;;17.00;99.90;;;;;;5055398;28;20453;-80
2021/07/03 05:18:36;;;;;;;20.80;17.03;;;17.00;99.90;;;;;;5055317;28;20911;-79
2021/07/03 05:21:03;;;;;;;20.97;17.87;;;17.10;99.90;;;;;;5055009;28;20452;-78
2021/07/03 05:23:31;;;;;;;29.60;18.93;;;17.10;99.90;;;;;;5056414;28;20500;-79
2021/07/03 05:25:58;;;;;;;27.50;18.93;;;17.00;99.90;;;;;;5061261;28;20449;-78
2021/07/03 05:28:25;;;;;;;19.10;16.13;;;17.20;99.90;;;;;;5059817;28;20992;-79
2021/07/03 05:30:53;;;;;;;21.83;16.30;;;17.10;99.90;;;;;;5058436;28;20457;-80
2021/07/03 05:33:20;;;;;;;23.10;17.93;;;17.10;99.90;;;;;;5056572;28;20491;-79
2021/07/03 05:35:46;;;;;;;20.60;16.80;;;17.20;99.90;;;;;;5055514;28;20945;-79
2021/07/03 05:38:13;;;;;;;36.73;19.30;;;17.20;99.90;;;;;;5055398;28;20534;-80
2021/07/03 05:40:41;;;;;;;23.90;16.70;;;17.30;99.90;;;;;;5055152;28;20449;-79
2021/07/03 05:43:08;;;;;;;22.10;18.67;;;17.30;99.90;;;;;;5057403;28;20520;-79
2021/07/03 05:45:35;;;;;;;25.30;17.87;;;17.40;99.90;;;;;;5054976;28;20824;-79
2021/07/03 05:48:01;;;;;;;20.43;17.33;;;17.40;99.90;;;;;;5054966;28;20886;-79
2021/07/03 05:50:28;;;;;;;22.23;17.40;;;17.40;99.90;;;;;;5054861;28;20548;-80
2021/07/03 05:52:55;;;;;;;20.30;17.00;;;17.50;99.90;;;;;;5055097;28;20801;-80
2021/07/03 05:55:23;;;;;;;25.33;16.60;;;17.50;99.90;;;;;;5056909;28;20500;-78
2021/07/03 05:57:51;;;;;;;18.10;16.00;;;17.30;99.90;;;;;;5055275;28;20906;-79
2021/07/03 06:00:18;;;;;;;22.93;17.50;;;17.50;99.90;;;;;;5057655;28;20449;-79
2021/07/03 06:02:45;;;;;;;23.67;17.83;;;17.60;99.90;;;;;;5061040;28;20866;-79
2021/07/03 06:05:12;;;;;;;22.73;17.10;;;17.60;99.90;;;;;;5059502;28;20449;-79
2021/07/03 06:07:38;;;;;;;20.97;16.20;;;17.60;99.90;;;;;;5061017;28;20501;-77
2021/07/03 06:10:06;;;;;;;21.67;15.93;;;17.60;99.90;;;;;;5064332;28;20449;-77
2021/07/03 06:12:34;;;;;;;21.90;15.20;;;17.60;99.90;;;;;;5064764;28;20544;-77
2021/07/03 06:15:02;;;;;;;18.60;15.90;;;17.50;99.90;;;;;;5058932;28;20944;-79
2021/07/03 06:17:28;;;;;;;22.13;16.67;;;17.60;99.90;;;;;;5057336;28;20499;-79
2021/07/03 06:19:55;;;;;;;21.50;16.93;;;17.60;99.90;;;;;;5058781;28;20452;-79
2021/07/03 06:22:21;;;;;;;19.90;16.77;;;17.60;99.90;;;;;;5058849;28;20441;-79
2021/07/03 06:24:48;;;;;;;18.77;15.90;;;17.60;99.90;;;;;;5058006;28;20477;-79
2021/07/03 06:27:16;;;;;;;18.87;15.47;;;17.60;99.90;;;;;;5057658;28;20952;-80
2021/07/03 06:29:42;;;;;;;18.10;15.37;;;17.60;99.90;;;;;;5057854;28;20446;-80
2021/07/03 06:32:11;;;;;;;20.23;13.30;;;17.70;99.90;;;;;;5057272;28;20808;-79
2021/07/03 06:34:38;;;;;;;21.03;14.20;;;17.80;99.90;;;;;;5057065;28;20453;-79
2021/07/03 06:37:05;;;;;;;18.03;14.20;;;18.90;99.90;;;;;;5057535;28;20454;-79
2021/07/03 06:39:33;;;;;;;17.30;13.40;;;18.10;99.90;;;;;;5057153;28;20598;-78
2021/07/03 06:41:59;;;;;;;16.93;13.60;;;18.10;99.90;;;;;;5056705;28;20447;-79
2021/07/03 06:44:26;;;;;;;15.20;12.80;;;18.10;99.90;;;;;;5057226;28;20478;-79
2021/07/03 06:46:53;;;;;;;15.50;12.00;;;18.30;99.90;;;;;;5056487;28;20475;-79
2021/07/03 06:49:21;;;;;;;13.67;12.27;;;18.40;99.90;;;;;;5056940;28;20451;-80
2021/07/03 06:51:48;;;;;;;13.33;11.93;;;18.50;99.90;;;;;;5057313;28;20451;-80
2021/07/03 06:54:15;;;;;;;16.93;10.47;;;18.70;99.90;;;;;;5056863;28;20491;-77
2021/07/03 06:56:41;;;;;;;13.27;11.17;;;18.70;99.90;;;;;;5057691;28;20451;-79
2021/07/03 06:59:08;;;;;;;13.00;11.60;;;18.80;99.90;;;;;;5058977;28;20476;-79
2021/07/03 07:01:35;;;;;;;13.60;11.77;;;19.00;99.90;;;;;;5057628;28;20439;-78
2021/07/03 07:04:02;;;;;;;15.03;11.50;;;19.00;99.90;;;;;;5057626;28;20453;-79
2021/07/03 07:06:29;;;;;;;12.30;10.33;;;19.10;99.90;;;;;;5056392;28;20966;-79
2021/07/03 07:08:56;;;;;;;12.40;9.73;;;19.30;99.90;;;;;;5056402;28;20467;-78
2021/07/03 07:11:23;;;;;;;15.93;11.10;;;19.20;99.90;;;;;;5056124;28;20463;-79
2021/07/03 07:13:49;;;;;;;12.33;10.17;;;19.30;99.90;;;;;;5056865;28;20478;-79
2021/07/03 07:16:16;;;;;;;17.03;9.07;;;19.30;99.90;;;;;;5056096;28;20452;-79
2021/07/03 07:18:43;;;;;;;12.10;10.07;;;19.40;99.90;;;;;;5056568;28;20471;-79
2021/07/03 07:21:09;;;;;;;12.97;9.83;;;19.40;99.90;;;;;;5056939;28;20456;-78
2021/07/03 07:23:37;;;;;;;12.00;10.70;;;19.50;99.90;;;;;;5056485;28;20474;-78
2021/07/03 07:26:04;;;;;;;13.47;9.73;;;19.60;99.90;;;;;;5056289;28;20450;-79
2021/07/03 07:28:30;;;;;;;14.67;10.73;;;19.50;99.90;;;;;;5056619;28;20880;-79
2021/07/03 07:30:57;;;;;;;14.87;10.70;;;19.60;99.90;;;;;;5056145;28;20488;-79
2021/07/03 07:33:24;;;;;;;14.03;11.60;;;19.70;99.90;;;;;;5055544;28;20483;-78
2021/07/03 07:35:50;;;;;;;20.53;12.87;;;19.70;99.90;;;;;;5060559;28;20460;-78
2021/07/03 07:38:17;;;;;;;15.23;12.63;;;19.80;99.90;;;;;;5061559;28;20471;-77
2021/07/03 07:40:45;;;;;;;16.70;11.53;;;19.80;99.90;;;;;;5062901;28;20475;-77
2021/07/03 07:43:11;;;;;;;13.30;11.60;;;19.80;99.90;;;;;;5062296;28;20456;-77
2021/07/03 07:45:38;;;;;;;13.70;11.87;;;20.30;99.90;;;;;;5061689;28;20502;-78
2021/07/03 07:48:05;;;;;;;14.13;12.30;;;19.90;99.90;;;;;;5060211;28;20471;-78
2021/07/03 07:50:32;;;;;;;14.90;11.13;;;19.80;99.90;;;;;;5059123;28;20453;-79
2021/07/03 07:52:58;;;;;;;13.33;11.73;;;19.80;99.90;;;;;;5060807;28;20487;-80
2021/07/03 07:55:25;;;;;;;13.50;11.83;;;19.80;99.90;;;;;;5060759;28;20451;-78
2021/07/03 07:57:53;;;;;;;19.30;12.40;;;19.90;99.90;;;;;;5058429;28;20496;-79
2021/07/03 08:00:22;;;;;;;14.93;13.37;;;20.00;99.90;;;;;;5056586;28;21002;-80
2021/07/03 08:02:49;;;;;;;16.07;11.90;;;20.20;99.90;;;;;;5058674;28;20450;-78
2021/07/03 08:05:16;;;;;;;13.43;11.20;;;20.20;99.90;;;;;;5059101;28;20442;-78
2021/07/03 08:07:43;;;;;;;12.27;10.97;;;20.20;99.90;;;;;;5058704;28;20469;-79
2021/07/03 08:10:11;;;;;;;13.23;11.83;;;20.20;99.90;;;;;;5056850;28;20441;-79
2021/07/03 08:12:38;;;;;;;13.30;11.57;;;20.10;99.90;;;;;;5056382;28;20525;-78
2021/07/03 08:15:07;;;;;;;15.27;13.53;;;20.00;99.90;;;;;;5056484;28;20445;-78
2021/07/03 08:17:34;;;;;;;12.90;11.53;;;20.10;99.90;;;;;;5057488;28;20468;-79
2021/07/03 08:20:01;;;;;;;15.90;13.33;;;20.30;99.90;;;;;;5057166;28;20445;-80
2021/07/03 08:22:27;;;;;;;17.60;13.47;;;20.40;99.90;;;;;;5055622;28;20504;-79
2021/07/03 08:24:54;;;;;;;13.40;11.90;;;20.50;99.90;;;;;;5056213;28;20503;-79
2021/07/03 08:27:21;;;;;;;16.10;12.80;;;20.50;99.90;;;;;;5056541;28;20952;-80
2021/07/03 08:29:47;;;;;;;14.63;12.23;;;20.50;99.90;;;;;;5056978;28;20449;-78
2021/07/03 08:32:15;;;;;;;15.67;12.93;;;20.30;99.90;;;;;;5059432;28;20451;-78
2021/07/03 08:34:42;;;;;;;16.87;12.60;;;20.30;99.90;;;;;;5058372;28;20453;-79
2021/07/03 08:37:08;;;;;;;13.63;12.23;;;20.40;99.90;;;;;;5057154;28;20485;-80
2021/07/03 08:39:35;;;;;;;14.77;12.83;;;20.10;99.90;;;;;;5057074;28;20449;-79
2021/07/03 08:42:02;;;;;;;13.70;12.37;;;20.20;99.90;;;;;;5056827;28;20457;-79
2021/07/03 08:44:28;;;;;;;12.23;11.03;;;20.40;99.90;;;;;;5056294;28;20498;-79
2021/07/03 08:46:55;;;;;;;14.83;12.13;;;20.20;99.90;;;;;;5056475;28;20479;-78
2021/07/03 08:49:23;;;;;;;15.10;12.70;;;20.40;99.90;;;;;;5056769;28;20544;-78
2021/07/03 08:51:52;;;;;;;16.90;13.83;;;20.40;99.90;;;;;;5057046;28;20445;-79
2021/07/03 08:54:18;;;;;;;11.70;10.50;;;20.30;99.90;;;;;;5058293;28;20481;-78
2021/07/03 08:56:47;;;;;;;12.53;11.10;;;20.30;99.90;;;;;;5058606;28;20468;-78
2021/07/03 08:59:16;;;;;;;15.07;11.33;;;20.40;99.90;;;;;;5077324;22;20485;-78
2021/07/03 09:01:53;;;;;;;15.17;13.20;;;20.30;99.90;;;;;;5057109;28;20778;-78
2021/07/03 09:04:32;;;;;;;14.70;12.00;;;20.50;99.90;;;;;;5054819;28;20469;-78
2021/07/03 09:07:10;;;;;;;12.23;10.80;;;20.70;99.90;;;;;;5055152;28;20903;-78
2021/07/03 09:09:37;;;;;;;14.13;11.70;;;21.00;99.90;;;;;;5036375;28;20433;-78
2021/07/03 09:12:04;;;;;;;15.73;13.83;;;21.10;99.90;;;;;;5035904;28;20854;-76
2021/07/03 09:14:31;;;;;;;13.23;11.43;;;21.20;99.90;;;;;;5037692;28;20478;-77
2021/07/03 09:16:58;;;;;;;11.80;10.57;;;21.20;99.90;;;;;;5038989;28;20501;-77
2021/07/03 09:19:27;;;;;;;12.50;11.20;;;21.10;99.90;;;;;;5040157;28;20467;-77
2021/07/03 09:21:54;;;;;;;11.43;10.00;;;21.00;99.90;;;;;;5040264;28;20451;-77
2021/07/03 09:24:23;;;;;;;16.30;11.97;;;20.90;99.90;;;;;;5039287;28;20945;-77
2021/07/03 09:26:58;;;;;;;11.77;10.57;;;20.90;99.90;;;;;;5038086;28;20451;-77
2021/07/03 09:29:24;;;;;;;11.77;10.20;;;20.60;99.90;;;;;;5036861;28;20466;-77
2021/07/03 09:31:51;;;;;;;14.07;11.70;;;20.50;99.90;;;;;;5038455;28;20461;-77
2021/07/03 09:34:17;;;;;;;14.30;11.70;;;20.50;99.90;;;;;;5038586;28;20481;-77
2021/07/03 09:36:44;;;;;;;12.73;11.53;;;20.60;99.90;;;;;;5039720;28;20461;-78
2021/07/03 09:39:20;;;;;;;13.10;11.80;;;20.50;99.90;;;;;;5039338;28;20471;-78
2021/07/03 09:41:49;;;;;;;12.73;11.40;;;20.40;99.90;;;;;;5039336;28;20831;-78
2021/07/03 09:44:16;;;;;;;17.50;10.70;;;20.40;99.90;;;;;;5038450;28;20442;-78
2021/07/03 09:46:48;;;;;;;12.43;11.23;;;20.40;99.90;;;;;;5038102;28;20473;-78
2021/07/03 09:49:16;;;;;;;11.87;10.67;;;20.50;99.90;;;;;;5038165;28;20506;-78
2021/07/03 09:51:44;;;;;;;11.23;10.13;;;20.70;99.90;;;;;;5041452;28;20446;-78
2021/07/03 09:54:13;;;;;;;10.77;9.70;;;20.80;99.90;;;;;;5041832;28;20478;-78
2021/07/03 09:56:41;;;;;;;10.47;9.47;;;20.90;99.90;;;;;;5039197;28;20552;-78
2021/07/03 09:59:09;;;;;;;9.87;8.87;;;21.00;99.90;;;;;;5038609;28;20485;-78
2021/07/03 10:01:39;;;;;;;9.90;9.00;;;21.10;99.90;;;;;;5045696;28;20477;-78
2021/07/03 10:04:06;;;;;;;11.40;10.30;;;21.40;99.90;;;;;;5045540;28;20447;-77
2021/07/03 10:06:37;;;;;;;11.03;9.17;;;21.60;99.90;;;;;;5045403;28;20523;-78
2021/07/03 10:09:06;;;;;;;11.30;10.23;;;21.70;99.90;;;;;;5039218;28;20821;-78
2021/07/03 10:11:41;;;;;;;10.70;9.40;;;21.80;99.90;;;;;;5037908;28;20450;-78
2021/07/03 10:14:09;;;;;;;8.33;7.50;;;21.90;99.90;;;;;;5037730;28;20490;-78
2021/07/03 10:16:36;;;;;;;11.00;9.77;;;21.90;99.90;;;;;;5037625;28;20458;-78
2021/07/03 10:19:07;;;;;;;10.70;9.43;;;21.80;99.90;;;;;;5038088;28;20532;-78
2021/07/03 10:21:34;;;;;;;11.43;10.17;;;21.70;99.90;;;;;;5037735;28;20439;-77
2021/07/03 10:24:01;;;;;;;13.87;9.83;;;21.50;99.90;;;;;;5039495;28;20443;-78
2021/07/03 10:26:35;;;;;;;10.17;9.17;;;21.40;99.90;;;;;;5038959;28;20468;-76
2021/07/03 10:29:02;;;;;;;9.57;8.57;;;21.30;99.90;;;;;;5042200;28;20913;-77
2021/07/03 10:31:34;;;;;;;12.43;8.33;;;21.20;99.90;;;;;;5038437;28;20466;-77
2021/07/03 10:34:00;;;;;;;10.83;9.73;;;21.20;99.90;;;;;;5037988;28;20554;-78
2021/07/03 10:36:31;;;;;;;10.20;9.10;;;21.30;99.90;;;;;;5037673;28;20450;-78
2021/07/03 10:38:59;;;;;;;10.07;9.17;;;21.50;99.90;;;;;;5037490;28;21088;-79
2021/07/03 10:41:28;;;;;;;10.50;9.47;;;21.90;99.90;;;;;;5040369;28;20454;-78
2021/07/03 10:44:00;;;;;;;9.30;8.13;;;21.80;99.90;;;;;;5039353;28;20446;-77
2021/07/03 10:46:32;;;;;;;10.70;8.50;;;21.80;99.90;;;;;;5037256;28;20514;-77
2021/07/03 10:49:02;;;;;;;8.77;7.97;;;21.80;99.90;;;;;;5038072;28;20478;-77
2021/07/03 10:51:32;;;;;;;9.50;8.30;;;21.80;99.90;;;;;;5036893;28;20803;-77
2021/07/03 10:54:18;;;;;;;9.37;7.40;;;21.90;99.90;;;;;;5040891;28;20470;-78
2021/07/03 10:56:49;;;;;;;8.33;7.40;;;22.10;99.90;;;;;;5045359;28;20462;-77
2021/07/03 10:59:17;;;;;;;7.90;7.13;;;22.20;99.90;;;;;;5043917;28;20520;-76
2021/07/03 11:01:45;;;;;;;7.43;6.80;;;22.20;99.90;;;;;;5039302;28;20992;-76
2021/07/03 11:04:18;;;;;;;7.73;7.03;;;22.20;99.90;;;;;;5037635;28;20439;-77
2021/07/03 11:06:47;;;;;;;8.10;7.03;;;22.20;99.90;;;;;;5037866;28;20438;-77
2021/07/03 11:09:28;;;;;;;9.23;7.60;;;22.10;99.90;;;;;;5037660;28;20559;-77
2021/07/03 11:11:57;;;;;;;8.20;7.50;;;22.10;99.90;;;;;;5037904;28;20861;-77
2021/07/03 11:14:26;;;;;;;8.67;7.80;;;22.10;99.90;;;;;;5037452;28;20486;-78
2021/07/03 11:16:54;;;;;;;15.63;8.73;;;22.20;99.90;;;;;;5038007;28;20470;-78
2021/07/03 11:19:23;;;;;;;9.83;8.83;;;22.40;99.90;;;;;;5037826;28;20506;-78
2021/07/03 11:21:50;;;;;;;9.10;8.20;;;22.50;99.90;;;;;;5042753;28;20500;-77
2021/07/03 11:24:17;;;;;;;8.70;7.90;;;22.40;99.90;;;;;;5044096;28;20442;-77
2021/07/03 11:26:44;;;;;;;8.00;7.30;;;22.40;99.90;;;;;;5044341;28;20451;-77
2021/07/03 11:29:11;;;;;;;8.33;7.60;;;22.20;99.90;;;;;;5040653;28;20477;-78
2021/07/03 11:31:37;;;;;;;9.53;8.20;;;22.10;99.90;;;;;;5039631;28;20457;-78
2021/07/03 11:34:04;;;;;;;8.10;7.40;;;22.10;99.90;;;;;;5043528;28;20485;-77
2021/07/03 11:36:32;;;;;;;7.97;7.23;;;22.10;99.90;;;;;;5045484;28;20454;-78
2021/07/03 11:39:00;;;;;;;8.20;7.43;;;22.10;99.90;;;;;;5044335;28;20467;-78
2021/07/03 11:41:28;;;;;;;7.90;7.20;;;22.10;99.90;;;;;;5038917;28;20446;-78
2021/07/03 11:44:02;;;;;;;9.63;8.07;;;22.10;99.90;;;;;;5041336;28;20478;-77
2021/07/03 11:46:29;;;;;;;9.20;7.80;;;22.10;99.90;;;;;;5042363;28;20458;-78
2021/07/03 11:48:55;;;;;;;7.97;6.97;;;22.30;99.90;;;;;;5043464;28;20481;-78
2021/07/03 11:51:22;;;;;;;8.47;7.67;;;22.40;99.90;;;;;;5040011;28;20446;-78
2021/07/03 11:53:53;;;;;;;7.03;6.40;;;22.60;99.90;;;;;;5038010;28;20498;-77
2021/07/03 11:56:21;;;;;;;7.17;6.50;;;22.70;99.90;;;;;;5038025;28;20485;-78
2021/07/03 11:58:50;;;;;;;9.27;7.20;;;22.80;99.90;;;;;;5035581;28;20854;-78
2021/07/03 12:01:19;;;;;;;8.03;7.37;;;22.80;99.90;;;;;;5036683;28;20457;-78
2021/07/03 12:03:48;;;;;;;7.80;7.10;;;22.90;99.90;;;;;;5037113;28;20945;-78
2021/07/03 12:06:20;;;;;;;7.83;7.03;;;22.90;99.90;;;;;;5036968;28;21080;-77
2021/07/03 12:08:48;;;;;;;10.20;7.20;;;23.00;99.90;;;;;;5036543;28;20526;-77
2021/07/03 12:11:18;;;;;;;7.73;7.00;;;22.90;99.90;;;;;;5035739;28;20455;-77
2021/07/03 12:13:49;;;;;;;7.67;6.93;;;22.70;99.90;;;;;;5035371;28;20474;-77
2021/07/03 12:16:18;;;;;;;8.30;7.50;;;22.60;99.90;;;;;;5037990;28;20501;-77
2021/07/03 12:18:49;;;;;;;7.60;6.90;;;22.50;99.90;;;;;;5036574;28;20470;-77
2021/07/03 12:21:17;;;;;;;8.30;7.30;;;22.50;99.90;;;;;;5039387;28;20799;-77
2021/07/03 12:23:54;;;;;;;7.30;6.60;;;22.40;99.90;;;;;;5034455;28;20505;-78
2021/07/03 12:26:24;;;;;;;7.97;7.17;;;22.40;99.90;;;;;;5035132;28;20573;-77
2021/07/03 12:28:53;;;;;;;7.60;6.90;;;22.40;99.90;;;;;;5035122;28;20474;-77
2021/07/03 12:31:24;;;;;;;8.90;8.10;;;22.30;99.90;;;;;;5036263;28;20450;-77